sensor_id;sensor_type;location;lat;lon;timestamp;P1;durP1;ratioP1;P2;durP2;ratioP2
3873;SDS011;1952;50.872;6.692;2023-05-07T00:33:00;12.13;;;10.93;;
3873;SDS011;1952;50.872;6.692;2023-05-07T00:35:29;11.67;;;10.57;;
3873;SDS011;1952;50.872;6.692;2023-05-07T00:37:57;11.03;;;10.03;;
3873;SDS011;1952;50.872;6.692;2023-05-07T00:40:26;11.60;;;10.50;;
3873;SDS011;1952;50.872;6.692;2023-05-07T00:42:54;10.00;;;9.20;;
3873;SDS011;1952;50.872;6.692;2023-05-07T00:45:24;8.93;;;8.03;;
3873;SDS011;1952;50.872;6.692;2023-05-07T00:47:54;9.97;;;9.07;;
3873;SDS011;1952;50.872;6.692;2023-05-07T00:50:24;8.63;;;7.83;;
3873;SDS011;1952;50.872;6.692;2023-05-07T00:52:52;10.03;;;9.07;;
3873;SDS011;1952;50.872;6.692;2023-05-07T00:55:21;10.00;;;9.00;;
3873;SDS011;1952;50.872;6.692;2023-05-07T00:57:50;7.63;;;6.93;;
3873;SDS011;1952;50.872;6.692;2023-05-07T01:00:18;10.17;;;9.17;;
3873;SDS011;1952;50.872;6.692;2023-05-07T01:02:47;7.57;;;6.87;;
3873;SDS011;1952;50.872;6.692;2023-05-07T01:05:16;8.20;;;7.40;;
3873;SDS011;1952;50.872;6.692;2023-05-07T01:07:47;9.70;;;8.80;;
3873;SDS011;1952;50.872;6.692;2023-05-07T01:10:16;10.77;;;9.20;;
3873;SDS011;1952;50.872;6.692;2023-05-07T01:12:44;8.17;;;7.40;;
3873;SDS011;1952;50.872;6.692;2023-05-07T01:15:13;8.63;;;7.47;;
3873;SDS011;1952;50.872;6.692;2023-05-07T01:17:42;8.57;;;7.77;;
3873;SDS011;1952;50.872;6.692;2023-05-07T01:20:10;11.67;;;10.57;;
3873;SDS011;1952;50.872;6.692;2023-05-07T01:22:41;13.03;;;10.83;;
3873;SDS011;1952;50.872;6.692;2023-05-07T01:25:10;10.40;;;9.33;;
3873;SDS011;1952;50.872;6.692;2023-05-07T01:27:39;10.53;;;9.30;;
3873;SDS011;1952;50.872;6.692;2023-05-07T01:30:07;18.47;;;15.13;;
3873;SDS011;1952;50.872;6.692;2023-05-07T01:32:38;18.17;;;15.13;;
3873;SDS011;1952;50.872;6.692;2023-05-07T01:35:11;19.23;;;16.87;;
3873;SDS011;1952;50.872;6.692;2023-05-07T01:37:39;24.77;;;18.37;;
3873;SDS011;1952;50.872;6.692;2023-05-07T01:40:10;21.00;;;18.43;;
3873;SDS011;1952;50.872;6.692;2023-05-07T01:42:38;17.40;;;14.40;;
3873;SDS011;1952;50.872;6.692;2023-05-07T01:45:07;20.93;;;15.27;;
3873;SDS011;1952;50.872;6.692;2023-05-07T01:47:35;21.87;;;18.57;;
3873;SDS011;1952;50.872;6.692;2023-05-07T01:50:04;19.53;;;15.53;;
3873;SDS011;1952;50.872;6.692;2023-05-07T01:52:35;26.80;;;21.00;;
3873;SDS011;1952;50.872;6.692;2023-05-07T01:55:06;20.20;;;15.87;;
3873;SDS011;1952;50.872;6.692;2023-05-07T01:57:34;18.27;;;16.37;;
3873;SDS011;1952;50.872;6.692;2023-05-07T02:00:03;22.03;;;18.60;;
3873;SDS011;1952;50.872;6.692;2023-05-07T02:02:31;17.40;;;15.43;;
3873;SDS011;1952;50.872;6.692;2023-05-07T02:05:00;19.83;;;15.97;;
3873;SDS011;1952;50.872;6.692;2023-05-07T02:07:28;20.57;;;16.57;;
3873;SDS011;1952;50.872;6.692;2023-05-07T02:09:56;27.67;;;22.63;;
3873;SDS011;1952;50.872;6.692;2023-05-07T02:12:26;23.50;;;18.60;;
3873;SDS011;1952;50.872;6.692;2023-05-07T02:14:54;23.43;;;18.83;;
3873;SDS011;1952;50.872;6.692;2023-05-07T02:17:22;26.23;;;21.27;;
3873;SDS011;1952;50.872;6.692;2023-05-07T02:19:51;24.83;;;19.97;;
3873;SDS011;1952;50.872;6.692;2023-05-07T02:22:19;26.70;;;21.50;;
3873;SDS011;1952;50.872;6.692;2023-05-07T02:24:47;25.20;;;19.80;;
3873;SDS011;1952;50.872;6.692;2023-05-07T02:27:15;27.93;;;22.10;;
3873;SDS011;1952;50.872;6.692;2023-05-07T02:29:45;26.73;;;21.43;;
3873;SDS011;1952;50.872;6.692;2023-05-07T02:32:13;24.27;;;19.40;;
3873;SDS011;1952;50.872;6.692;2023-05-07T02:34:41;28.80;;;20.57;;
3873;SDS011;1952;50.872;6.692;2023-05-07T02:37:10;26.70;;;20.83;;
3873;SDS011;1952;50.872;6.692;2023-05-07T02:39:38;26.50;;;17.50;;
3873;SDS011;1952;50.872;6.692;2023-05-07T02:42:06;20.73;;;17.97;;
3873;SDS011;1952;50.872;6.692;2023-05-07T02:44:34;19.57;;;15.50;;
3873;SDS011;1952;50.872;6.692;2023-05-07T02:47:04;21.40;;;16.97;;
3873;SDS011;1952;50.872;6.692;2023-05-07T02:49:34;17.70;;;13.10;;
3873;SDS011;1952;50.872;6.692;2023-05-07T02:52:02;22.93;;;18.20;;
3873;SDS011;1952;50.872;6.692;2023-05-07T02:54:30;21.63;;;17.03;;
3873;SDS011;1952;50.872;6.692;2023-05-07T02:56:59;25.40;;;19.33;;
3873;SDS011;1952;50.872;6.692;2023-05-07T02:59:28;21.93;;;18.13;;
3873;SDS011;1952;50.872;6.692;2023-05-07T03:01:56;22.93;;;18.13;;
3873;SDS011;1952;50.872;6.692;2023-05-07T03:04:26;19.67;;;15.67;;
3873;SDS011;1952;50.872;6.692;2023-05-07T03:06:54;20.13;;;17.20;;
3873;SDS011;1952;50.872;6.692;2023-05-07T03:09:22;21.67;;;17.67;;
3873;SDS011;1952;50.872;6.692;2023-05-07T03:11:51;20.20;;;17.10;;
3873;SDS011;1952;50.872;6.692;2023-05-07T03:14:19;24.17;;;18.53;;
3873;SDS011;1952;50.872;6.692;2023-05-07T03:16:48;23.13;;;17.50;;
3873;SDS011;1952;50.872;6.692;2023-05-07T03:19:16;25.73;;;18.13;;
3873;SDS011;1952;50.872;6.692;2023-05-07T03:21:46;20.43;;;16.53;;
3873;SDS011;1952;50.872;6.692;2023-05-07T03:24:14;17.77;;;13.90;;
3873;SDS011;1952;50.872;6.692;2023-05-07T03:26:42;18.80;;;14.40;;
3873;SDS011;1952;50.872;6.692;2023-05-07T03:29:10;22.90;;;17.50;;
3873;SDS011;1952;50.872;6.692;2023-05-07T03:31:38;16.90;;;14.20;;
3873;SDS011;1952;50.872;6.692;2023-05-07T03:34:07;14.63;;;12.80;;
3873;SDS011;1952;50.872;6.692;2023-05-07T03:36:35;13.73;;;11.70;;
3873;SDS011;1952;50.872;6.692;2023-05-07T03:39:05;11.87;;;10.67;;
3873;SDS011;1952;50.872;6.692;2023-05-07T03:41:33;16.03;;;12.53;;
3873;SDS011;1952;50.872;6.692;2023-05-07T03:44:01;14.30;;;11.80;;
3873;SDS011;1952;50.872;6.692;2023-05-07T03:46:29;12.73;;;11.33;;
3873;SDS011;1952;50.872;6.692;2023-05-07T03:48:59;12.50;;;11.17;;
3873;SDS011;1952;50.872;6.692;2023-05-07T03:51:27;11.00;;;9.60;;
3873;SDS011;1952;50.872;6.692;2023-05-07T03:53:55;16.10;;;12.00;;
3873;SDS011;1952;50.872;6.692;2023-05-07T03:56:25;11.97;;;10.57;;
3873;SDS011;1952;50.872;6.692;2023-05-07T03:58:54;13.63;;;10.83;;
3873;SDS011;1952;50.872;6.692;2023-05-07T04:01:22;12.20;;;9.60;;
3873;SDS011;1952;50.872;6.692;2023-05-07T04:03:50;13.30;;;10.10;;
3873;SDS011;1952;50.872;6.692;2023-05-07T04:06:18;14.00;;;10.00;;
3873;SDS011;1952;50.872;6.692;2023-05-07T04:08:47;15.70;;;13.10;;
3873;SDS011;1952;50.872;6.692;2023-05-07T04:11:15;11.60;;;10.40;;
3873;SDS011;1952;50.872;6.692;2023-05-07T04:13:44;12.97;;;11.00;;
3873;SDS011;1952;50.872;6.692;2023-05-07T04:16:12;19.43;;;12.60;;
3873;SDS011;1952;50.872;6.692;2023-05-07T04:18:41;12.47;;;11.27;;
3873;SDS011;1952;50.872;6.692;2023-05-07T04:21:13;15.97;;;11.70;;
3873;SDS011;1952;50.872;6.692;2023-05-07T04:23:42;11.90;;;9.60;;
3873;SDS011;1952;50.872;6.692;2023-05-07T04:26:10;10.67;;;9.60;;
3873;SDS011;1952;50.872;6.692;2023-05-07T04:28:38;10.57;;;9.47;;
3873;SDS011;1952;50.872;6.692;2023-05-07T04:31:07;14.13;;;11.37;;
3873;SDS011;1952;50.872;6.692;2023-05-07T04:33:35;10.97;;;9.97;;
3873;SDS011;1952;50.872;6.692;2023-05-07T04:36:04;10.00;;;9.00;;
3873;SDS011;1952;50.872;6.692;2023-05-07T04:38:32;11.03;;;9.53;;
3873;SDS011;1952;50.872;6.692;2023-05-07T04:41:02;10.03;;;8.73;;
3873;SDS011;1952;50.872;6.692;2023-05-07T04:43:31;10.53;;;9.20;;
3873;SDS011;1952;50.872;6.692;2023-05-07T04:45:59;11.30;;;9.73;;
3873;SDS011;1952;50.872;6.692;2023-05-07T04:48:29;12.20;;;9.30;;
3873;SDS011;1952;50.872;6.692;2023-05-07T04:50:57;10.93;;;9.90;;
3873;SDS011;1952;50.872;6.692;2023-05-07T04:53:26;10.90;;;9.43;;
3873;SDS011;1952;50.872;6.692;2023-05-07T04:55:54;10.50;;;9.50;;
3873;SDS011;1952;50.872;6.692;2023-05-07T04:58:23;10.20;;;9.13;;
3873;SDS011;1952;50.872;6.692;2023-05-07T05:00:51;10.07;;;9.00;;
3873;SDS011;1952;50.872;6.692;2023-05-07T05:03:20;10.47;;;9.47;;
3873;SDS011;1952;50.872;6.692;2023-05-07T05:05:50;9.03;;;8.13;;
3873;SDS011;1952;50.872;6.692;2023-05-07T05:08:19;9.97;;;8.97;;
3873;SDS011;1952;50.872;6.692;2023-05-07T05:10:47;9.40;;;8.50;;
3873;SDS011;1952;50.872;6.692;2023-05-07T05:13:16;9.23;;;8.40;;
3873;SDS011;1952;50.872;6.692;2023-05-07T05:15:44;9.47;;;8.47;;
3873;SDS011;1952;50.872;6.692;2023-05-07T05:18:12;9.60;;;8.60;;
3873;SDS011;1952;50.872;6.692;2023-05-07T05:20:40;9.50;;;8.43;;
3873;SDS011;1952;50.872;6.692;2023-05-07T05:23:10;8.77;;;7.87;;
3873;SDS011;1952;50.872;6.692;2023-05-07T05:25:38;10.80;;;9.70;;
3873;SDS011;1952;50.872;6.692;2023-05-07T05:28:06;9.80;;;8.90;;
3873;SDS011;1952;50.872;6.692;2023-05-07T05:30:35;8.70;;;7.90;;
3873;SDS011;1952;50.872;6.692;2023-05-07T05:33:03;8.10;;;7.30;;
3873;SDS011;1952;50.872;6.692;2023-05-07T05:35:31;8.27;;;7.57;;
3873;SDS011;1952;50.872;6.692;2023-05-07T05:37:59;9.03;;;8.30;;
3873;SDS011;1952;50.872;6.692;2023-05-07T05:40:29;8.80;;;8.10;;
3873;SDS011;1952;50.872;6.692;2023-05-07T05:42:57;11.03;;;7.83;;
3873;SDS011;1952;50.872;6.692;2023-05-07T05:45:25;10.13;;;9.20;;
3873;SDS011;1952;50.872;6.692;2023-05-07T05:47:55;8.43;;;7.73;;
3873;SDS011;1952;50.872;6.692;2023-05-07T05:50:23;8.37;;;7.77;;
3873;SDS011;1952;50.872;6.692;2023-05-07T05:52:52;10.47;;;9.47;;
3873;SDS011;1952;50.872;6.692;2023-05-07T06:35:39;8.30;;;7.60;;
3873;SDS011;1952;50.872;6.692;2023-05-07T06:38:07;10.60;;;8.90;;
3873;SDS011;1952;50.872;6.692;2023-05-07T06:40:36;7.60;;;6.93;;
3873;SDS011;1952;50.872;6.692;2023-05-07T06:43:05;10.37;;;9.50;;
3873;SDS011;1952;50.872;6.692;2023-05-07T06:45:33;10.37;;;9.47;;
3873;SDS011;1952;50.872;6.692;2023-05-07T06:48:01;8.23;;;7.53;;
3873;SDS011;1952;50.872;6.692;2023-05-07T06:50:30;7.93;;;7.30;;
3873;SDS011;1952;50.872;6.692;2023-05-07T06:52:59;9.10;;;8.40;;
3873;SDS011;1952;50.872;6.692;2023-05-07T06:55:28;8.93;;;8.03;;
3873;SDS011;1952;50.872;6.692;2023-05-07T06:57:56;9.50;;;8.70;;
3873;SDS011;1952;50.872;6.692;2023-05-07T07:00:27;9.20;;;8.40;;
3873;SDS011;1952;50.872;6.692;2023-05-07T07:02:56;7.20;;;6.50;;
3873;SDS011;1952;50.872;6.692;2023-05-07T07:05:25;9.47;;;8.63;;
3873;SDS011;1952;50.872;6.692;2023-05-07T07:07:53;7.43;;;6.73;;
3873;SDS011;1952;50.872;6.692;2023-05-07T07:10:23;8.00;;;7.23;;
3873;SDS011;1952;50.872;6.692;2023-05-07T07:12:51;7.93;;;7.10;;
3873;SDS011;1952;50.872;6.692;2023-05-07T07:15:20;8.57;;;6.63;;
3873;SDS011;1952;50.872;6.692;2023-05-07T07:17:48;7.10;;;6.50;;
3873;SDS011;1952;50.872;6.692;2023-05-07T07:20:16;8.60;;;7.60;;
3873;SDS011;1952;50.872;6.692;2023-05-07T07:22:45;6.50;;;5.87;;
3873;SDS011;1952;50.872;6.692;2023-05-07T07:25:17;5.37;;;4.97;;
3873;SDS011;1952;50.872;6.692;2023-05-07T07:27:47;8.43;;;5.87;;
3873;SDS011;1952;50.872;6.692;2023-05-07T07:30:31;4.50;;;4.17;;
3873;SDS011;1952;50.872;6.692;2023-05-07T07:32:59;6.10;;;5.53;;
3873;SDS011;1952;50.872;6.692;2023-05-07T07:35:29;7.53;;;5.57;;
3873;SDS011;1952;50.872;6.692;2023-05-07T07:37:57;5.67;;;5.27;;
3873;SDS011;1952;50.872;6.692;2023-05-07T07:40:26;4.63;;;4.20;;
3873;SDS011;1952;50.872;6.692;2023-05-07T07:42:56;4.97;;;4.57;;
3873;SDS011;1952;50.872;6.692;2023-05-07T07:45:24;6.10;;;5.50;;
3873;SDS011;1952;50.872;6.692;2023-05-07T07:48:12;6.00;;;5.50;;
3873;SDS011;1952;50.872;6.692;2023-05-07T07:50:54;5.67;;;5.17;;
3873;SDS011;1952;50.872;6.692;2023-05-07T07:53:24;6.50;;;3.97;;
3873;SDS011;1952;50.872;6.692;2023-05-07T07:56:16;5.30;;;4.90;;
3873;SDS011;1952;50.872;6.692;2023-05-07T08:01:30;4.93;;;4.50;;
3873;SDS011;1952;50.872;6.692;2023-05-07T08:03:59;4.87;;;4.47;;
3873;SDS011;1952;50.872;6.692;2023-05-07T08:06:38;7.00;;;6.07;;
3873;SDS011;1952;50.872;6.692;2023-05-07T08:09:21;5.43;;;4.93;;
3873;SDS011;1952;50.872;6.692;2023-05-07T08:11:52;5.40;;;4.90;;
3873;SDS011;1952;50.872;6.692;2023-05-07T08:14:20;4.47;;;4.07;;
3873;SDS011;1952;50.872;6.692;2023-05-07T08:16:55;5.00;;;4.00;;
3873;SDS011;1952;50.872;6.692;2023-05-07T08:19:37;4.00;;;3.70;;
3873;SDS011;1952;50.872;6.692;2023-05-07T08:22:06;4.67;;;4.27;;
3873;SDS011;1952;50.872;6.692;2023-05-07T08:24:49;4.60;;;4.20;;
3873;SDS011;1952;50.872;6.692;2023-05-07T08:27:20;6.50;;;4.17;;
3873;SDS011;1952;50.872;6.692;2023-05-07T08:29:48;3.80;;;3.50;;
3873;SDS011;1952;50.872;6.692;2023-05-07T08:32:19;5.07;;;4.10;;
3873;SDS011;1952;50.872;6.692;2023-05-07T08:35:01;5.17;;;4.77;;
3873;SDS011;1952;50.872;6.692;2023-05-07T08:37:29;4.63;;;4.00;;
3873;SDS011;1952;50.872;6.692;2023-05-07T08:39:58;4.30;;;3.90;;
3873;SDS011;1952;50.872;6.692;2023-05-07T08:42:29;5.20;;;4.70;;
3873;SDS011;1952;50.872;6.692;2023-05-07T08:44:59;4.60;;;4.30;;
3873;SDS011;1952;50.872;6.692;2023-05-07T08:47:33;3.93;;;3.60;;
3873;SDS011;1952;50.872;6.692;2023-05-07T08:50:05;3.97;;;3.67;;
3873;SDS011;1952;50.872;6.692;2023-05-07T08:52:34;4.33;;;3.40;;
3873;SDS011;1952;50.872;6.692;2023-05-07T08:55:04;3.70;;;3.33;;
3873;SDS011;1952;50.872;6.692;2023-05-07T08:57:43;3.90;;;3.60;;
3873;SDS011;1952;50.872;6.692;2023-05-07T09:00:17;3.87;;;3.57;;
3873;SDS011;1952;50.872;6.692;2023-05-07T09:02:47;3.30;;;3.00;;
3873;SDS011;1952;50.872;6.692;2023-05-07T09:05:17;5.53;;;4.07;;
3873;SDS011;1952;50.872;6.692;2023-05-07T09:07:45;4.07;;;3.77;;
3873;SDS011;1952;50.872;6.692;2023-05-07T09:10:16;3.03;;;2.83;;
3873;SDS011;1952;50.872;6.692;2023-05-07T09:12:46;3.93;;;3.63;;
3873;SDS011;1952;50.872;6.692;2023-05-07T09:15:17;3.40;;;3.17;;
3873;SDS011;1952;50.872;6.692;2023-05-07T09:17:49;3.43;;;3.13;;
3873;SDS011;1952;50.872;6.692;2023-05-07T09:20:23;3.70;;;3.40;;
3873;SDS011;1952;50.872;6.692;2023-05-07T09:22:55;4.20;;;3.87;;
3873;SDS011;1952;50.872;6.692;2023-05-07T09:25:27;3.20;;;2.67;;
3873;SDS011;1952;50.872;6.692;2023-05-07T09:27:56;3.80;;;3.20;;
3873;SDS011;1952;50.872;6.692;2023-05-07T09:30:27;4.27;;;3.87;;
3873;SDS011;1952;50.872;6.692;2023-05-07T09:32:59;5.53;;;3.47;;
3873;SDS011;1952;50.872;6.692;2023-05-07T09:35:29;4.23;;;3.60;;
3873;SDS011;1952;50.872;6.692;2023-05-07T09:37:59;3.07;;;2.87;;
3873;SDS011;1952;50.872;6.692;2023-05-07T09:40:30;3.67;;;3.27;;
3873;SDS011;1952;50.872;6.692;2023-05-07T09:43:08;3.33;;;2.80;;
3873;SDS011;1952;50.872;6.692;2023-05-07T09:45:38;3.40;;;3.10;;
3873;SDS011;1952;50.872;6.692;2023-05-07T09:48:09;3.30;;;3.00;;
3873;SDS011;1952;50.872;6.692;2023-05-07T09:50:44;3.30;;;3.00;;
3873;SDS011;1952;50.872;6.692;2023-05-07T09:53:16;4.47;;;4.13;;
3873;SDS011;1952;50.872;6.692;2023-05-07T09:55:45;3.60;;;3.30;;
3873;SDS011;1952;50.872;6.692;2023-05-07T09:58:13;3.70;;;3.40;;
3873;SDS011;1952;50.872;6.692;2023-05-07T10:00:43;3.60;;;3.30;;
3873;SDS011;1952;50.872;6.692;2023-05-07T10:03:13;3.70;;;3.00;;
3873;SDS011;1952;50.872;6.692;2023-05-07T10:05:42;4.57;;;2.83;;
3873;SDS011;1952;50.872;6.692;2023-05-07T10:08:12;3.47;;;3.17;;
3873;SDS011;1952;50.872;6.692;2023-05-07T10:10:43;3.13;;;2.93;;
3873;SDS011;1952;50.872;6.692;2023-05-07T10:13:12;3.47;;;2.80;;
3873;SDS011;1952;50.872;6.692;2023-05-07T10:15:40;5.20;;;4.67;;
3873;SDS011;1952;50.872;6.692;2023-05-07T10:18:09;3.50;;;3.30;;
3873;SDS011;1952;50.872;6.692;2023-05-07T10:20:39;4.30;;;3.27;;
3873;SDS011;1952;50.872;6.692;2023-05-07T10:23:09;4.07;;;3.47;;
3873;SDS011;1952;50.872;6.692;2023-05-07T10:25:41;4.00;;;3.17;;
3873;SDS011;1952;50.872;6.692;2023-05-07T10:28:10;3.40;;;2.90;;
3873;SDS011;1952;50.872;6.692;2023-05-07T10:30:44;3.73;;;3.43;;
3873;SDS011;1952;50.872;6.692;2023-05-07T10:33:17;3.30;;;3.10;;
3873;SDS011;1952;50.872;6.692;2023-05-07T10:35:49;4.43;;;4.10;;
3873;SDS011;1952;50.872;6.692;2023-05-07T10:38:17;3.60;;;3.30;;
3873;SDS011;1952;50.872;6.692;2023-05-07T10:40:46;5.37;;;3.87;;
3873;SDS011;1952;50.872;6.692;2023-05-07T10:43:15;4.37;;;4.00;;
3873;SDS011;1952;50.872;6.692;2023-05-07T10:45:43;4.60;;;3.30;;
3873;SDS011;1952;50.872;6.692;2023-05-07T10:48:13;3.47;;;3.17;;
3873;SDS011;1952;50.872;6.692;2023-05-07T10:53:40;5.50;;;5.10;;
3873;SDS011;1952;50.872;6.692;2023-05-07T10:56:24;4.10;;;3.80;;
3873;SDS011;1952;50.872;6.692;2023-05-07T10:58:53;3.60;;;3.33;;
3873;SDS011;1952;50.872;6.692;2023-05-07T11:04:19;3.80;;;3.50;;
3873;SDS011;1952;50.872;6.692;2023-05-07T11:07:17;3.33;;;3.13;;
3873;SDS011;1952;50.872;6.692;2023-05-07T11:10:03;4.53;;;4.13;;
3873;SDS011;1952;50.872;6.692;2023-05-07T11:12:51;4.13;;;3.73;;
3873;SDS011;1952;50.872;6.692;2023-05-07T11:15:36;5.23;;;4.83;;
3873;SDS011;1952;50.872;6.692;2023-05-07T11:18:05;4.17;;;3.77;;
3873;SDS011;1952;50.872;6.692;2023-05-07T11:20:44;4.57;;;4.27;;
3873;SDS011;1952;50.872;6.692;2023-05-07T11:25:59;4.80;;;4.50;;
3873;SDS011;1952;50.872;6.692;2023-05-07T11:28:28;6.20;;;3.97;;
3873;SDS011;1952;50.872;6.692;2023-05-07T11:30:57;3.80;;;3.50;;
3873;SDS011;1952;50.872;6.692;2023-05-07T11:33:25;6.70;;;4.60;;
3873;SDS011;1952;50.872;6.692;2023-05-07T11:35:54;4.73;;;4.33;;
3873;SDS011;1952;50.872;6.692;2023-05-07T11:38:23;4.10;;;3.70;;
3873;SDS011;1952;50.872;6.692;2023-05-07T11:40:52;4.83;;;4.47;;
3873;SDS011;1952;50.872;6.692;2023-05-07T11:43:22;4.40;;;4.03;;
3873;SDS011;1952;50.872;6.692;2023-05-07T11:45:51;4.87;;;4.47;;
3873;SDS011;1952;50.872;6.692;2023-05-07T11:48:20;5.03;;;4.63;;
3873;SDS011;1952;50.872;6.692;2023-05-07T11:50:52;5.13;;;4.53;;
3873;SDS011;1952;50.872;6.692;2023-05-07T11:53:23;4.40;;;4.00;;
3873;SDS011;1952;50.872;6.692;2023-05-07T11:55:52;4.07;;;3.77;;
3873;SDS011;1952;50.872;6.692;2023-05-07T12:35:29;4.33;;;3.90;;
3873;SDS011;1952;50.872;6.692;2023-05-07T12:37:57;4.47;;;4.07;;
3873;SDS011;1952;50.872;6.692;2023-05-07T12:40:37;4.60;;;4.10;;
3873;SDS011;1952;50.872;6.692;2023-05-07T12:43:05;4.37;;;4.07;;
3873;SDS011;1952;50.872;6.692;2023-05-07T12:45:36;4.00;;;3.70;;
3873;SDS011;1952;50.872;6.692;2023-05-07T12:48:05;5.50;;;5.00;;
3873;SDS011;1952;50.872;6.692;2023-05-07T12:50:35;5.50;;;5.10;;
3873;SDS011;1952;50.872;6.692;2023-05-07T12:53:04;5.40;;;5.00;;
3873;SDS011;1952;50.872;6.692;2023-05-07T12:55:40;6.23;;;5.67;;
3873;SDS011;1952;50.872;6.692;2023-05-07T12:58:08;5.40;;;4.90;;
3873;SDS011;1952;50.872;6.692;2023-05-07T13:00:42;5.20;;;4.80;;
3873;SDS011;1952;50.872;6.692;2023-05-07T13:03:10;6.23;;;5.63;;
3873;SDS011;1952;50.872;6.692;2023-05-07T13:05:43;8.07;;;5.90;;
3873;SDS011;1952;50.872;6.692;2023-05-07T13:08:11;6.40;;;5.77;;
3873;SDS011;1952;50.872;6.692;2023-05-07T13:10:39;7.47;;;6.77;;
3873;SDS011;1952;50.872;6.692;2023-05-07T13:13:07;7.03;;;6.33;;
3873;SDS011;1952;50.872;6.692;2023-05-07T13:15:36;9.80;;;9.00;;
3873;SDS011;1952;50.872;6.692;2023-05-07T13:18:05;7.37;;;6.77;;
3873;SDS011;1952;50.872;6.692;2023-05-07T13:20:33;7.13;;;6.43;;
3873;SDS011;1952;50.872;6.692;2023-05-07T13:23:03;7.43;;;6.77;;
3873;SDS011;1952;50.872;6.692;2023-05-07T13:25:31;9.00;;;7.83;;
3873;SDS011;1952;50.872;6.692;2023-05-07T13:28:04;6.37;;;5.77;;
3873;SDS011;1952;50.872;6.692;2023-05-07T13:30:36;6.50;;;6.00;;
3873;SDS011;1952;50.872;6.692;2023-05-07T13:33:05;5.60;;;5.03;;
3873;SDS011;1952;50.872;6.692;2023-05-07T13:35:33;6.63;;;6.10;;
3873;SDS011;1952;50.872;6.692;2023-05-07T13:38:03;6.30;;;5.80;;
3873;SDS011;1952;50.872;6.692;2023-05-07T13:40:31;6.03;;;5.53;;
3873;SDS011;1952;50.872;6.692;2023-05-07T13:42:59;6.67;;;6.17;;
3873;SDS011;1952;50.872;6.692;2023-05-07T13:45:28;6.87;;;6.37;;
3873;SDS011;1952;50.872;6.692;2023-05-07T13:48:00;6.30;;;5.50;;
3873;SDS011;1952;50.872;6.692;2023-05-07T13:50:28;7.57;;;5.80;;
3873;SDS011;1952;50.872;6.692;2023-05-07T13:52:57;6.00;;;5.40;;
3873;SDS011;1952;50.872;6.692;2023-05-07T13:55:30;4.37;;;3.93;;
3873;SDS011;1952;50.872;6.692;2023-05-07T13:58:03;5.90;;;5.23;;
3873;SDS011;1952;50.872;6.692;2023-05-07T14:00:32;4.37;;;3.97;;
3873;SDS011;1952;50.872;6.692;2023-05-07T14:03:01;4.90;;;4.20;;
3873;SDS011;1952;50.872;6.692;2023-05-07T14:05:30;4.17;;;3.77;;
3873;SDS011;1952;50.872;6.692;2023-05-07T14:07:58;4.37;;;3.93;;
3873;SDS011;1952;50.872;6.692;2023-05-07T14:10:26;3.63;;;3.43;;
3873;SDS011;1952;50.872;6.692;2023-05-07T14:13:01;4.90;;;3.90;;
3873;SDS011;1952;50.872;6.692;2023-05-07T14:15:34;4.60;;;3.70;;
3873;SDS011;1952;50.872;6.692;2023-05-07T14:18:04;4.00;;;3.63;;
3873;SDS011;1952;50.872;6.692;2023-05-07T14:20:32;3.53;;;3.23;;
3873;SDS011;1952;50.872;6.692;2023-05-07T14:23:02;2.90;;;2.70;;
3873;SDS011;1952;50.872;6.692;2023-05-07T14:25:31;3.20;;;3.00;;
3873;SDS011;1952;50.872;6.692;2023-05-07T14:28:07;3.13;;;2.80;;
3873;SDS011;1952;50.872;6.692;2023-05-07T14:30:35;3.10;;;2.90;;
3873;SDS011;1952;50.872;6.692;2023-05-07T14:33:04;3.37;;;3.07;;
3873;SDS011;1952;50.872;6.692;2023-05-07T14:35:33;5.13;;;3.60;;
3873;SDS011;1952;50.872;6.692;2023-05-07T14:38:01;3.17;;;2.87;;
3873;SDS011;1952;50.872;6.692;2023-05-07T14:40:29;3.17;;;2.87;;
3873;SDS011;1952;50.872;6.692;2023-05-07T14:42:58;4.03;;;2.97;;
3873;SDS011;1952;50.872;6.692;2023-05-07T14:45:28;3.17;;;2.97;;
3873;SDS011;1952;50.872;6.692;2023-05-07T14:47:57;3.30;;;3.00;;
3873;SDS011;1952;50.872;6.692;2023-05-07T14:50:27;2.87;;;2.67;;
3873;SDS011;1952;50.872;6.692;2023-05-07T14:52:56;3.43;;;3.13;;
3873;SDS011;1952;50.872;6.692;2023-05-07T14:55:24;3.53;;;3.30;;
3873;SDS011;1952;50.872;6.692;2023-05-07T14:57:53;4.37;;;4.03;;
3873;SDS011;1952;50.872;6.692;2023-05-07T15:00:23;4.10;;;3.70;;
3873;SDS011;1952;50.872;6.692;2023-05-07T15:02:53;4.13;;;3.77;;
3873;SDS011;1952;50.872;6.692;2023-05-07T15:05:22;5.27;;;4.77;;
3873;SDS011;1952;50.872;6.692;2023-05-07T15:07:51;5.03;;;4.63;;
3873;SDS011;1952;50.872;6.692;2023-05-07T15:10:22;6.97;;;4.57;;
3873;SDS011;1952;50.872;6.692;2023-05-07T15:12:51;6.33;;;5.10;;
3873;SDS011;1952;50.872;6.692;2023-05-07T15:15:20;6.13;;;5.30;;
3873;SDS011;1952;50.872;6.692;2023-05-07T15:17:49;6.63;;;5.17;;
3873;SDS011;1952;50.872;6.692;2023-05-07T15:20:21;5.83;;;5.43;;
3873;SDS011;1952;50.872;6.692;2023-05-07T15:22:49;5.60;;;5.10;;
3873;SDS011;1952;50.872;6.692;2023-05-07T15:25:18;5.60;;;5.10;;
3873;SDS011;1952;50.872;6.692;2023-05-07T15:27:47;6.00;;;5.60;;
3873;SDS011;1952;50.872;6.692;2023-05-07T15:30:15;4.80;;;4.50;;
3873;SDS011;1952;50.872;6.692;2023-05-07T15:32:46;5.40;;;5.00;;
3873;SDS011;1952;50.872;6.692;2023-05-07T15:35:26;5.90;;;5.40;;
3873;SDS011;1952;50.872;6.692;2023-05-07T15:37:55;5.50;;;4.90;;
3873;SDS011;1952;50.872;6.692;2023-05-07T15:40:43;5.73;;;5.23;;
3873;SDS011;1952;50.872;6.692;2023-05-07T15:43:28;5.47;;;5.07;;
3873;SDS011;1952;50.872;6.692;2023-05-07T15:46:17;5.23;;;4.77;;
3873;SDS011;1952;50.872;6.692;2023-05-07T15:48:46;5.10;;;4.70;;
3873;SDS011;1952;50.872;6.692;2023-05-07T15:51:17;5.50;;;5.00;;
3873;SDS011;1952;50.872;6.692;2023-05-07T15:53:46;5.00;;;4.60;;
3873;SDS011;1952;50.872;6.692;2023-05-07T15:56:21;4.37;;;4.07;;
3873;SDS011;1952;50.872;6.692;2023-05-07T15:58:51;5.03;;;4.53;;
3873;SDS011;1952;50.872;6.692;2023-05-07T16:01:20;4.23;;;3.83;;
3873;SDS011;1952;50.872;6.692;2023-05-07T16:03:54;4.87;;;4.50;;
3873;SDS011;1952;50.872;6.692;2023-05-07T16:06:29;5.00;;;4.60;;
3873;SDS011;1952;50.872;6.692;2023-05-07T16:09:00;4.13;;;3.83;;
3873;SDS011;1952;50.872;6.692;2023-05-07T16:11:50;6.17;;;5.03;;
3873;SDS011;1952;50.872;6.692;2023-05-07T16:14:29;6.73;;;4.83;;
3873;SDS011;1952;50.872;6.692;2023-05-07T16:17:07;5.97;;;4.40;;
3873;SDS011;1952;50.872;6.692;2023-05-07T16:19:52;5.30;;;4.83;;
3873;SDS011;1952;50.872;6.692;2023-05-07T16:25:50;5.27;;;4.77;;
3873;SDS011;1952;50.872;6.692;2023-05-07T16:28:46;7.43;;;5.37;;
3873;SDS011;1952;50.872;6.692;2023-05-07T16:31:17;5.03;;;4.63;;
3873;SDS011;1952;50.872;6.692;2023-05-07T16:33:54;4.77;;;4.40;;
3873;SDS011;1952;50.872;6.692;2023-05-07T16:36:39;4.83;;;4.43;;
3873;SDS011;1952;50.872;6.692;2023-05-07T16:39:14;4.80;;;4.40;;
3873;SDS011;1952;50.872;6.692;2023-05-07T16:41:58;4.63;;;4.23;;
3873;SDS011;1952;50.872;6.692;2023-05-07T16:44:28;3.97;;;3.50;;
3873;SDS011;1952;50.872;6.692;2023-05-07T16:47:11;4.97;;;4.60;;
3873;SDS011;1952;50.872;6.692;2023-05-07T16:49:56;5.53;;;5.03;;
3873;SDS011;1952;50.872;6.692;2023-05-07T16:52:28;5.17;;;4.77;;
3873;SDS011;1952;50.872;6.692;2023-05-07T16:55:03;6.93;;;5.20;;
3873;SDS011;1952;50.872;6.692;2023-05-07T16:57:38;4.80;;;4.50;;
3873;SDS011;1952;50.872;6.692;2023-05-07T17:00:08;5.60;;;5.20;;
3873;SDS011;1952;50.872;6.692;2023-05-07T17:02:51;4.67;;;4.37;;
3873;SDS011;1952;50.872;6.692;2023-05-07T17:05:21;5.60;;;4.63;;
3873;SDS011;1952;50.872;6.692;2023-05-07T17:07:57;5.50;;;5.00;;
3873;SDS011;1952;50.872;6.692;2023-05-07T17:10:41;4.40;;;4.10;;
3873;SDS011;1952;50.872;6.692;2023-05-07T17:13:12;5.30;;;4.90;;
3873;SDS011;1952;50.872;6.692;2023-05-07T17:15:41;6.20;;;5.60;;
3873;SDS011;1952;50.872;6.692;2023-05-07T17:18:12;5.80;;;5.30;;
3873;SDS011;1952;50.872;6.692;2023-05-07T17:20:41;5.30;;;4.90;;
3873;SDS011;1952;50.872;6.692;2023-05-07T17:23:32;5.27;;;4.70;;
3873;SDS011;1952;50.872;6.692;2023-05-07T17:26:02;6.10;;;5.70;;
3873;SDS011;1952;50.872;6.692;2023-05-07T17:28:34;5.30;;;4.90;;
3873;SDS011;1952;50.872;6.692;2023-05-07T17:31:03;6.40;;;5.70;;
3873;SDS011;1952;50.872;6.692;2023-05-07T17:33:32;5.33;;;4.83;;